createdAt,value
2018-05-15T00:01:40.224Z,101231.30
2018-05-15T00:04:46.160Z,101232.13
2018-05-15T00:07:52.201Z,101229.38
2018-05-15T00:10:57.990Z,101226.98
2018-05-15T00:14:04.146Z,101232.65
2018-05-15T00:17:09.917Z,101234.63
2018-05-15T00:20:15.134Z,101234.98
2018-05-15T00:23:21.878Z,101239.04
2018-05-15T00:26:27.489Z,101236.23
2018-05-15T00:29:34.370Z,101233.41
2018-05-15T00:32:40.190Z,101236.34
2018-05-15T00:35:45.409Z,101233.80
2018-05-15T00:38:50.629Z,101229.41
2018-05-15T00:41:55.839Z,101225.86
2018-05-15T00:45:01.057Z,101229.27
2018-05-15T00:48:06.273Z,101230.41
2018-05-15T00:51:11.481Z,101235.83
2018-05-15T00:54:16.704Z,101238.92
2018-05-15T00:57:22.833Z,101238.02
2018-05-15T01:00:28.757Z,101238.05
2018-05-15T01:03:34.397Z,101245.06
2018-05-15T01:06:40.328Z,101239.11
2018-05-15T01:09:46.311Z,101240.95
2018-05-15T01:12:52.411Z,101236.73
2018-05-15T01:15:58.526Z,101233.00
2018-05-15T01:19:04.161Z,101237.87
2018-05-15T01:22:10.021Z,101235.84
2018-05-15T01:25:15.242Z,101235.09
2018-05-15T01:28:20.457Z,101240.30
2018-05-15T01:31:25.669Z,101239.30
2018-05-15T01:34:31.846Z,101240.31
2018-05-15T01:37:37.733Z,101247.34
2018-05-15T01:40:42.953Z,101246.14
2018-05-15T01:43:48.001Z,101240.32
2018-05-15T01:46:53.217Z,101241.52
2018-05-15T01:49:58.442Z,101238.15
2018-05-15T01:53:03.792Z,101244.77
2018-05-15T01:56:10.113Z,101243.11
2018-05-15T01:59:15.728Z,101243.98
2018-05-15T02:02:21.835Z,101241.78
2018-05-15T02:05:27.859Z,101235.95
2018-05-15T02:08:33.865Z,101232.33
2018-05-15T02:11:39.990Z,101228.55
2018-05-15T02:14:45.860Z,101231.22
2018-05-15T02:17:51.065Z,101222.48
2018-05-15T02:20:56.056Z,101232.51
2018-05-15T02:24:01.257Z,101229.14
2018-05-15T02:27:07.017Z,101226.42
2018-05-15T02:30:12.937Z,101223.64
2018-05-15T02:33:18.174Z,101218.19
2018-05-15T02:36:23.384Z,101216.14
2018-05-15T02:39:28.784Z,101215.47
2018-05-15T02:42:34.421Z,101220.63
2018-05-15T02:45:40.349Z,101217.96
2018-05-15T02:48:46.148Z,101222.52
2018-05-15T02:51:51.492Z,101223.31
2018-05-15T02:54:57.432Z,101224.73
2018-05-15T02:58:03.662Z,101214.58
2018-05-15T03:01:08.877Z,101210.71
2018-05-15T03:04:14.814Z,101213.27
2018-05-15T03:07:19.769Z,101218.30
2018-05-15T03:10:24.983Z,101217.59
2018-05-15T03:13:30.433Z,101210.09
2018-05-15T03:16:35.658Z,101212.27
2018-05-15T03:19:41.797Z,101206.47
2018-05-15T03:22:47.026Z,101206.22
2018-05-15T03:25:53.041Z,101217.47
2018-05-15T03:28:59.189Z,101219.78
2018-05-15T03:32:05.418Z,101220.27
2018-05-15T03:35:11.285Z,101226.00
2018-05-15T03:38:16.661Z,101225.41
2018-05-15T03:41:21.902Z,101224.45
2018-05-15T03:44:27.237Z,101234.80
2018-05-15T03:47:32.189Z,101225.48
2018-05-15T03:50:37.836Z,101218.70
2018-05-15T03:53:43.098Z,101217.04
2018-05-15T03:56:48.298Z,101213.59
2018-05-15T03:59:54.350Z,101209.27
2018-05-15T04:03:10.365Z,101214.66
2018-05-15T04:06:27.009Z,101211.28
2018-05-15T04:09:32.509Z,101213.10
2018-05-15T04:12:38.885Z,101213.67
2018-05-15T04:15:44.550Z,101220.86
2018-05-15T04:18:49.798Z,101210.91
2018-05-15T04:21:55.993Z,101216.93
2018-05-15T04:25:02.134Z,101219.23
2018-05-15T04:28:07.141Z,101221.25
2018-05-15T04:31:12.565Z,101222.16
2018-05-15T04:34:18.299Z,101218.30
2018-05-15T04:37:24.519Z,101214.84
2018-05-15T04:40:29.713Z,101212.91
2018-05-15T04:43:35.183Z,101214.77
2018-05-15T04:46:41.327Z,101211.47
2018-05-15T04:49:46.558Z,101214.72
2018-05-15T04:52:51.895Z,101215.59
2018-05-15T04:55:57.091Z,101213.19
2018-05-15T04:59:03.335Z,101218.48
2018-05-15T05:02:09.198Z,101224.47
2018-05-15T05:05:15.238Z,101227.36
2018-05-15T05:08:20.909Z,101221.75
2018-05-15T05:11:26.929Z,101227.88
2018-05-15T05:14:33.069Z,101233.98
2018-05-15T05:17:38.753Z,101230.86
2018-05-15T05:20:43.964Z,101232.31
2018-05-15T05:23:50.126Z,101234.16
2018-05-15T05:26:56.042Z,101242.19
2018-05-15T05:30:02.031Z,101239.49
2018-05-15T05:33:07.998Z,101245.70
2018-05-15T05:36:14.197Z,101248.11
2018-05-15T05:39:20.149Z,101248.75
2018-05-15T05:42:25.985Z,101248.62
2018-05-15T05:45:31.840Z,101252.41
2018-05-15T05:48:37.094Z,101255.23
2018-05-15T05:51:43.141Z,101255.95
2018-05-15T05:54:49.180Z,101257.91
2018-05-15T05:57:54.401Z,101260.37
2018-05-15T06:01:00.533Z,101261.83
2018-05-15T06:04:05.672Z,101258.61
2018-05-15T06:07:11.204Z,101251.92
2018-05-15T06:10:16.425Z,101255.50
2018-05-15T06:13:22.075Z,101254.42
2018-05-15T06:16:27.296Z,101251.55
2018-05-15T06:19:32.508Z,101253.42
2018-05-15T06:22:38.260Z,101252.62
2018-05-15T06:25:43.683Z,101254.48
2018-05-15T06:28:49.332Z,101258.52
2018-05-15T06:31:54.571Z,101255.14
2018-05-15T06:34:59.795Z,101260.45
2018-05-15T06:38:05.525Z,101258.37
2018-05-15T06:41:11.567Z,101258.89
2018-05-15T06:44:16.790Z,101259.84
2018-05-15T06:47:22.545Z,101251.78
2018-05-15T06:50:29.570Z,101257.42
2018-05-15T06:53:34.933Z,101254.41
2018-05-15T06:56:40.541Z,101256.63
2018-05-15T06:59:45.790Z,101245.88
2018-05-15T07:02:51.935Z,101250.65
2018-05-15T07:05:57.153Z,101245.98
2018-05-15T07:09:02.438Z,101251.97
2018-05-15T07:12:07.386Z,101256.65
2018-05-15T07:15:13.541Z,101256.59
2018-05-15T07:18:19.701Z,101263.05
2018-05-15T07:21:25.346Z,101260.41
2018-05-15T07:24:31.469Z,101258.57
2018-05-15T07:27:37.414Z,101253.29
2018-05-15T07:30:43.530Z,101261.35
2018-05-15T07:33:49.561Z,101260.87
2018-05-15T07:36:55.677Z,101261.99
2018-05-15T07:40:01.714Z,101260.53
2018-05-15T07:43:06.913Z,101262.89
2018-05-15T07:46:12.174Z,101252.80
2018-05-15T07:49:18.337Z,101261.08
2018-05-15T07:52:24.505Z,101259.95
2018-05-15T07:55:29.709Z,101260.49
2018-05-15T07:58:35.728Z,101258.89
2018-05-15T08:01:41.440Z,101262.02
2018-05-15T08:04:46.676Z,101260.77
2018-05-15T08:07:51.885Z,101257.73
2018-05-15T08:10:57.118Z,101255.19
2018-05-15T08:14:03.307Z,101256.91
2018-05-15T08:17:09.525Z,101257.77
2018-05-15T08:20:14.754Z,101259.91
2018-05-15T08:23:19.965Z,101262.56
2018-05-15T08:26:25.193Z,101260.89
2018-05-15T08:29:31.545Z,101264.31
2018-05-15T08:32:36.764Z,101264.25
2018-05-15T08:35:41.971Z,101267.58
2018-05-15T08:38:47.712Z,101269.25
2018-05-15T08:41:53.741Z,101266.10
2018-05-15T08:44:59.569Z,101268.13
2018-05-15T08:48:05.798Z,101269.86
2018-05-15T08:51:12.163Z,101280.57
2018-05-15T08:54:17.913Z,101275.17
2018-05-15T08:57:24.045Z,101271.95
2018-05-15T09:00:30.185Z,101271.76
2018-05-15T09:03:36.341Z,101276.80
2018-05-15T09:06:42.270Z,101274.46
2018-05-15T09:09:47.490Z,101279.10
2018-05-15T09:12:52.694Z,101277.16
2018-05-15T09:15:57.921Z,101273.68
2018-05-15T09:19:03.137Z,101271.91
2018-05-15T09:22:09.316Z,101269.25
2018-05-15T09:25:14.796Z,101273.85
2018-05-15T09:28:20.997Z,101273.02
2018-05-15T09:31:27.038Z,101275.42
2018-05-15T09:34:33.081Z,101270.11
2018-05-15T09:37:39.106Z,101278.68
2018-05-15T09:40:45.258Z,101272.56
2018-05-15T09:43:57.498Z,101261.74
2018-05-15T09:47:02.716Z,101262.94
2018-05-15T09:50:09.275Z,101263.64
2018-05-15T09:53:14.969Z,101260.56
2018-05-15T09:56:20.186Z,101253.73
2018-05-15T09:59:25.399Z,101252.84
2018-05-15T10:02:31.117Z,101263.06
2018-05-15T10:05:37.260Z,101257.90
2018-05-15T10:08:42.473Z,101253.89
2018-05-15T10:11:48.405Z,101262.56
2018-05-15T10:14:53.611Z,101256.14
2018-05-15T10:17:58.825Z,101250.16
2018-05-15T10:21:04.082Z,101250.16
2018-05-15T10:24:09.884Z,101248.69
2018-05-15T10:27:15.535Z,101252.34
2018-05-15T10:30:21.558Z,101242.33
2018-05-15T10:33:27.703Z,101241.71
2018-05-15T10:36:33.357Z,101242.61
2018-05-15T10:39:38.567Z,101248.28
2018-05-15T10:42:44.194Z,101248.00
2018-05-15T10:45:50.439Z,101242.36
2018-05-15T10:48:56.517Z,101236.61
2018-05-15T10:52:02.650Z,101237.22
2018-05-15T10:55:08.662Z,101229.58
2018-05-15T10:58:14.284Z,101224.34
2018-05-15T11:01:19.989Z,101230.45
2018-05-15T11:04:26.139Z,101228.73
2018-05-15T11:07:32.358Z,101225.30
2018-05-15T11:10:38.173Z,101221.23
2018-05-15T11:13:44.397Z,101222.12
2018-05-15T11:16:50.215Z,101217.68
2018-05-15T11:20:06.457Z,101212.45
2018-05-15T11:23:23.341Z,101213.27
2018-05-15T11:26:28.511Z,101214.99
2018-05-15T11:29:33.874Z,101214.44
2018-05-15T11:32:40.010Z,101215.20
2018-05-15T11:35:45.721Z,101216.30
2018-05-15T11:38:51.064Z,101221.78
2018-05-15T11:41:56.090Z,101210.08
2018-05-15T11:45:01.464Z,101209.53
2018-05-15T11:48:07.067Z,101205.91
2018-05-15T11:51:14.194Z,101210.03
2018-05-15T11:54:19.123Z,101208.17
2018-05-15T11:57:25.041Z,101203.77
2018-05-15T12:00:30.989Z,101204.72
2018-05-15T12:03:36.272Z,101200.47
2018-05-15T12:06:42.229Z,101194.20
2018-05-15T12:09:48.282Z,101196.05
2018-05-15T12:12:54.463Z,101192.48
2018-05-15T12:16:00.710Z,101189.99
2018-05-15T12:19:06.757Z,101190.13
2018-05-15T12:22:12.710Z,101191.64
2018-05-15T12:25:17.927Z,101192.59
2018-05-15T12:28:24.051Z,101184.53
2018-05-15T12:31:29.266Z,101187.69
2018-05-15T12:34:35.397Z,101189.56
2018-05-15T12:37:41.534Z,101176.88
2018-05-15T12:40:47.362Z,101179.70
2018-05-15T12:43:53.277Z,101178.22
2018-05-15T12:46:59.429Z,101173.50
2018-05-15T12:50:05.254Z,101171.30
2018-05-15T12:53:10.456Z,101173.81
2018-05-15T12:56:16.507Z,101171.20
2018-05-15T12:59:22.545Z,101184.38
2018-05-15T13:02:28.677Z,101163.09
2018-05-15T13:05:34.739Z,101166.13
2018-05-15T13:08:40.463Z,101171.67
2018-05-15T13:11:45.406Z,101166.61
2018-05-15T13:14:50.606Z,101161.08
2018-05-15T13:17:55.549Z,101157.29
2018-05-15T13:21:00.767Z,101154.52
2018-05-15T13:24:05.982Z,101150.59
2018-05-15T13:27:11.211Z,101143.81
2018-05-15T13:30:16.427Z,101144.90
2018-05-15T13:33:22.456Z,101138.45
2018-05-15T13:36:28.466Z,101130.40
2018-05-15T13:39:34.517Z,101131.75
2018-05-15T13:42:40.585Z,101132.00
2018-05-15T13:45:46.505Z,101128.56
2018-05-15T13:48:52.257Z,101121.70
2018-05-15T13:51:57.462Z,101126.38
2018-05-15T13:55:03.589Z,101118.57
2018-05-15T13:58:09.717Z,101116.91
2018-05-15T14:01:15.893Z,101109.00
2018-05-15T14:04:21.526Z,101111.04
2018-05-15T14:07:27.700Z,101109.03
2018-05-15T14:10:33.726Z,101104.69
2018-05-15T14:13:38.952Z,101109.78
2018-05-15T14:16:44.220Z,101097.37
2018-05-15T14:19:50.107Z,101093.80
2018-05-15T14:22:55.910Z,101100.38
2018-05-15T14:26:02.049Z,101089.14
2018-05-15T14:29:07.261Z,101087.83
2018-05-15T14:32:12.481Z,101092.23
2018-05-15T14:35:18.708Z,101091.33
2018-05-15T14:38:24.510Z,101095.83
2018-05-15T14:41:41.629Z,101091.61
2018-05-15T14:44:47.365Z,101100.78
2018-05-15T14:47:53.205Z,101093.25
2018-05-15T14:51:27.600Z,101095.28
2018-05-15T14:54:33.434Z,101089.96
2018-05-15T14:57:39.181Z,101092.42
2018-05-15T15:00:45.218Z,101088.98
2018-05-15T15:03:50.445Z,101080.91
2018-05-15T15:06:55.642Z,101079.88
2018-05-15T15:10:01.794Z,101076.58
2018-05-15T15:13:07.434Z,101086.43
2018-05-15T15:16:13.010Z,101086.20
2018-05-15T15:19:18.229Z,101084.14
2018-05-15T15:22:23.459Z,101078.15
2018-05-15T15:25:28.686Z,101079.56
2018-05-15T15:28:34.797Z,101077.97
2018-05-15T15:31:40.421Z,101081.42
2018-05-15T15:34:45.649Z,101082.96
2018-05-15T15:37:51.779Z,101080.72
2018-05-15T15:40:58.094Z,101072.86
2018-05-15T15:44:04.045Z,101076.03
2018-05-15T15:47:09.985Z,101070.99
2018-05-15T15:50:15.608Z,101070.30
2018-05-15T15:53:21.858Z,101066.48
2018-05-15T15:56:27.894Z,101067.77
2018-05-15T15:59:33.119Z,101071.48
2018-05-15T16:02:38.402Z,101067.63
2018-05-15T16:05:43.621Z,101065.52
2018-05-15T16:08:48.887Z,101060.13
2018-05-15T16:11:54.088Z,101054.91
2018-05-15T16:14:59.987Z,101052.95
2018-05-15T16:18:05.703Z,101044.15
2018-05-15T16:21:10.942Z,101043.30
2018-05-15T16:24:16.188Z,101041.52
2018-05-15T16:27:23.089Z,101041.91
2018-05-15T16:30:28.541Z,101037.98
2018-05-15T16:33:33.826Z,101031.86
2018-05-15T16:36:39.029Z,101030.00
2018-05-15T16:39:44.266Z,101030.15
2018-05-15T16:42:50.274Z,101026.56
2018-05-15T16:45:56.213Z,101025.03
2018-05-15T16:49:02.234Z,101020.03
2018-05-15T16:52:08.236Z,101019.80
2018-05-15T16:55:14.507Z,101023.02
2018-05-15T16:58:19.738Z,101019.95
2018-05-15T17:01:25.737Z,101022.61
2018-05-15T17:04:32.668Z,101015.19
2018-05-15T17:07:38.825Z,101012.17
2018-05-15T17:10:45.922Z,101015.16
2018-05-15T17:14:06.723Z,101015.92
2018-05-15T17:17:12.570Z,101004.97
2018-05-15T17:20:18.756Z,101005.66
2018-05-15T17:23:25.347Z,101000.70
2018-05-15T17:26:34.159Z,101003.11
2018-05-15T17:29:40.231Z,100996.48
2018-05-15T17:32:45.705Z,100992.77
2018-05-15T17:35:51.662Z,101006.51
2018-05-15T17:38:57.529Z,101005.55
2018-05-15T17:42:03.685Z,100999.67
2018-05-15T17:45:09.825Z,100995.69
2018-05-15T17:48:15.065Z,100995.55
2018-05-15T17:51:20.309Z,100985.55
2018-05-15T17:54:26.638Z,100993.72
2018-05-15T17:57:32.749Z,100985.78
2018-05-15T18:00:38.850Z,100985.64
2018-05-15T18:03:45.896Z,100989.48
2018-05-15T18:06:51.171Z,100986.25
2018-05-15T18:09:56.892Z,100977.93
2018-05-15T18:13:03.041Z,100975.31
2018-05-15T18:16:08.283Z,100974.38
2018-05-15T18:19:14.369Z,100978.34
2018-05-15T18:22:21.385Z,100974.39
2018-05-15T18:25:26.605Z,100972.25
2018-05-15T18:28:32.516Z,100967.95
2018-05-15T18:31:38.229Z,100961.48
2018-05-15T18:34:43.825Z,100960.00
2018-05-15T18:37:49.063Z,100976.44
2018-05-15T18:40:55.749Z,100970.73
2018-05-15T18:44:01.045Z,100966.30
2018-05-15T18:47:07.086Z,100966.34
2018-05-15T18:50:13.924Z,100968.06
2018-05-15T18:53:19.337Z,100971.06
2018-05-15T18:56:24.581Z,100965.31
2018-05-15T18:59:30.554Z,100964.34
2018-05-15T19:02:35.836Z,100963.80
2018-05-15T19:05:41.053Z,100978.48
2018-05-15T19:08:47.344Z,100965.79
2018-05-15T19:11:52.569Z,100967.95
2018-05-15T19:14:57.797Z,100978.66
2018-05-15T19:18:03.960Z,100975.61
2018-05-15T19:21:08.955Z,100979.39
2018-05-15T19:24:15.874Z,100985.87
2018-05-15T19:27:22.658Z,100987.08
2018-05-15T19:30:28.175Z,100987.30
2018-05-15T19:33:39.908Z,100989.33
2018-05-15T19:36:51.037Z,100994.43
2018-05-15T19:39:58.155Z,100997.73
2018-05-15T19:43:03.906Z,100998.52
2018-05-15T19:46:09.738Z,100983.16
2018-05-15T19:49:16.610Z,100991.59
2018-05-15T19:52:22.356Z,100994.98
2018-05-15T19:55:27.638Z,100995.58
2018-05-15T19:58:32.855Z,100996.17
2018-05-15T20:01:38.084Z,100996.45
2018-05-15T20:04:44.897Z,100992.80
2018-05-15T20:07:50.123Z,101002.63
2018-05-15T20:10:56.146Z,101001.55
2018-05-15T20:14:01.373Z,101000.07
2018-05-15T20:17:06.583Z,101000.26
2018-05-15T20:20:12.092Z,100994.44
2018-05-15T20:23:17.421Z,101000.75
2018-05-15T20:26:22.621Z,101010.16
2018-05-15T20:29:28.458Z,101010.81
2018-05-15T20:32:34.606Z,101013.33
2018-05-15T20:35:40.938Z,101016.64
2018-05-15T20:38:46.167Z,101019.08
2018-05-15T20:41:51.882Z,101018.93
2018-05-15T20:44:57.117Z,101022.36
2018-05-15T20:48:02.336Z,101022.63
2018-05-15T20:51:09.462Z,101025.53
2018-05-15T20:54:15.595Z,101022.05
2018-05-15T20:57:20.818Z,101018.53
2018-05-15T21:00:26.125Z,101021.43
2018-05-15T21:03:31.695Z,101025.30
2018-05-15T21:06:37.733Z,101026.54
2018-05-15T21:09:44.412Z,101026.50
2018-05-15T21:12:49.659Z,101029.63
2018-05-15T21:15:55.734Z,101031.95
2018-05-15T21:19:01.493Z,101025.34
2018-05-15T21:22:08.045Z,101025.16
2018-05-15T21:25:14.286Z,101024.70
2018-05-15T21:28:20.310Z,101031.45
2018-05-15T21:31:25.531Z,101026.13
2018-05-15T21:34:30.740Z,101033.30
2018-05-15T21:37:36.766Z,101037.78
2018-05-15T21:40:41.974Z,101036.08
2018-05-15T21:43:48.128Z,101039.38
2018-05-15T21:46:53.314Z,101035.88
2018-05-15T21:49:58.208Z,101040.44
2018-05-15T21:53:04.280Z,101044.26
2018-05-15T21:56:10.506Z,101037.22
2018-05-15T21:59:15.711Z,101036.77
2018-05-15T22:02:20.928Z,101027.90
2018-05-15T22:05:27.077Z,101024.54
2018-05-15T22:08:32.735Z,101020.98
2018-05-15T22:11:49.125Z,101020.05
2018-05-15T22:15:10.805Z,101015.30
2018-05-15T22:18:33.442Z,101018.50
2018-05-15T22:21:55.149Z,101017.06
2018-05-15T22:25:06.598Z,101012.45
2018-05-15T22:28:12.286Z,101015.69
2018-05-15T22:31:18.045Z,101022.47
2018-05-15T22:34:23.456Z,101020.45
2018-05-15T22:37:28.686Z,101019.21
2018-05-15T22:40:33.896Z,101019.16
2018-05-15T22:43:40.741Z,101007.53
2018-05-15T22:46:46.383Z,101003.23
2018-05-15T22:49:52.071Z,101005.70
2018-05-15T22:52:58.161Z,101001.41
2018-05-15T22:56:03.381Z,101001.34
2018-05-15T22:59:09.085Z,100992.91
2018-05-15T23:02:15.318Z,100993.56
2018-05-15T23:05:22.100Z,101002.91
2018-05-15T23:08:27.759Z,100995.34
2018-05-15T23:11:33.491Z,100995.39
2018-05-15T23:14:38.420Z,100994.31
2018-05-15T23:17:44.450Z,100997.83
2018-05-15T23:20:50.185Z,101003.95
2018-05-15T23:23:56.029Z,101001.62
2018-05-15T23:27:01.964Z,101008.21
2018-05-15T23:30:07.705Z,101006.63
2018-05-15T23:33:13.500Z,101010.67
2018-05-15T23:36:19.429Z,101006.95
2018-05-15T23:39:25.585Z,101012.24
2018-05-15T23:42:39.192Z,101013.28
2018-05-15T23:45:46.278Z,101008.23
2018-05-15T23:48:51.474Z,101009.22
2018-05-15T23:51:58.024Z,101008.80
2018-05-15T23:55:03.675Z,101004.09
2018-05-15T23:58:09.782Z,101003.98
